createdAt,value
2024-02-28T00:01:26.274Z,56.65
2024-02-28T00:04:29.230Z,56.27
2024-02-28T00:07:31.617Z,55.79
2024-02-28T00:10:34.638Z,55.95
2024-02-28T00:13:36.965Z,55.96
2024-02-28T00:16:43.454Z,56.50
2024-02-28T00:19:45.842Z,56.99
2024-02-28T00:22:48.853Z,57.12
2024-02-28T00:25:51.197Z,57.47
2024-02-28T00:28:54.907Z,57.65
2024-02-28T00:31:57.245Z,56.90
2024-02-28T00:35:00.208Z,57.65
2024-02-28T00:38:02.819Z,57.89
2024-02-28T00:41:05.785Z,57.03
2024-02-28T00:44:08.143Z,57.86
2024-02-28T00:47:11.279Z,58.04
2024-02-28T00:50:13.817Z,57.51
2024-02-28T00:53:17.364Z,58.06
2024-02-28T00:56:19.729Z,56.75
2024-02-28T00:59:22.658Z,57.24
2024-02-28T01:02:25.001Z,58.05
2024-02-28T01:05:28.090Z,58.32
2024-02-28T01:08:30.564Z,58.89
2024-02-28T01:11:33.494Z,58.22
2024-02-28T01:14:35.917Z,57.85
2024-02-28T01:17:38.834Z,57.84
2024-02-28T01:20:41.245Z,58.00
2024-02-28T01:23:44.106Z,58.37
2024-02-28T01:26:46.685Z,58.34
2024-02-28T01:29:49.556Z,58.46
2024-02-28T01:32:51.899Z,57.36
2024-02-28T01:35:57.574Z,57.03
2024-02-28T01:39:01.106Z,57.75
2024-02-28T01:42:04.243Z,58.42
2024-02-28T01:45:06.858Z,57.56
2024-02-28T01:48:13.244Z,57.04
2024-02-28T01:51:16.239Z,57.70
2024-02-28T01:54:19.494Z,57.73
2024-02-28T01:57:22.219Z,58.04
2024-02-28T02:00:26.254Z,58.60
2024-02-28T02:03:28.951Z,58.96
2024-02-28T02:06:32.406Z,59.34
2024-02-28T02:09:35.849Z,59.68
2024-02-28T02:12:38.860Z,58.56
2024-02-28T02:15:42.356Z,58.18
2024-02-28T02:18:45.364Z,59.30
2024-02-28T02:21:53.545Z,58.78
2024-02-28T02:24:56.374Z,58.70
2024-02-28T02:27:59.106Z,58.91
2024-02-28T02:31:01.849Z,59.74
2024-02-28T02:34:04.595Z,60.01
2024-02-28T02:37:09.813Z,59.75
2024-02-28T02:40:12.917Z,59.88
2024-02-28T02:43:15.798Z,60.03
2024-02-28T02:46:18.489Z,59.42
2024-02-28T02:49:21.267Z,59.70
2024-02-28T02:52:23.957Z,59.81
2024-02-28T02:55:26.545Z,58.27
2024-02-28T02:58:29.237Z,57.16
2024-02-28T03:01:31.963Z,57.20
2024-02-28T03:04:34.693Z,57.91
2024-02-28T03:07:37.521Z,57.53
2024-02-28T03:10:40.363Z,58.61
2024-02-28T03:13:43.020Z,58.08
2024-02-28T03:16:45.907Z,57.90
2024-02-28T03:19:48.620Z,57.66
2024-02-28T03:22:51.203Z,56.83
2024-02-28T03:25:53.992Z,56.59
2024-02-28T03:28:56.763Z,56.47
2024-02-28T03:31:59.677Z,57.71
2024-02-28T03:35:02.263Z,56.83
2024-02-28T03:38:04.913Z,56.13
2024-02-28T03:41:07.604Z,56.45
2024-02-28T03:44:10.259Z,56.52
2024-02-28T03:47:12.909Z,56.39
2024-02-28T03:50:15.551Z,56.66
2024-02-28T03:53:18.229Z,57.17
2024-02-28T03:56:27.621Z,58.43
2024-02-28T03:59:30.362Z,57.70
2024-02-28T04:02:33.230Z,56.88
2024-02-28T04:05:35.880Z,56.80
2024-02-28T04:08:38.573Z,56.44
2024-02-28T04:11:41.809Z,56.63
2024-02-28T04:14:44.387Z,56.90
2024-02-28T04:17:46.985Z,56.50
2024-02-28T04:20:49.651Z,56.03
2024-02-28T04:23:52.254Z,55.85
2024-02-28T04:26:54.900Z,55.46
2024-02-28T04:29:57.731Z,55.88
2024-02-28T04:33:00.354Z,55.64
2024-02-28T04:36:03.221Z,56.48
2024-02-28T04:39:08.551Z,55.75
2024-02-28T04:42:11.153Z,56.94
2024-02-28T04:45:14.063Z,56.48
2024-02-28T04:48:16.819Z,55.94
2024-02-28T04:51:20.039Z,55.79
2024-02-28T04:54:22.727Z,55.68
2024-02-28T04:57:25.455Z,57.01
2024-02-28T05:00:28.290Z,57.58
2024-02-28T05:03:31.058Z,56.60
2024-02-28T05:06:34.384Z,57.25
2024-02-28T05:09:37.738Z,57.11
2024-02-28T05:12:40.468Z,56.31
2024-02-28T05:15:43.193Z,56.39
2024-02-28T05:18:46.601Z,56.29
2024-02-28T05:21:52.221Z,56.89
2024-02-28T05:24:55.315Z,56.68
2024-02-28T05:27:58.079Z,56.82
2024-02-28T05:31:01.387Z,57.07
2024-02-28T05:34:04.152Z,58.02
2024-02-28T05:37:07.004Z,58.56
2024-02-28T05:40:10.563Z,55.88
2024-02-28T05:43:13.356Z,57.08
2024-02-28T05:46:16.416Z,57.59
2024-02-28T05:49:19.100Z,56.39
2024-02-28T05:52:21.710Z,55.22
2024-02-28T05:55:25.355Z,55.72
2024-02-28T05:58:28.014Z,56.48
2024-02-28T06:01:30.795Z,56.62
2024-02-28T06:04:34.504Z,55.03
2024-02-28T06:07:36.878Z,55.71
2024-02-28T06:10:39.832Z,54.89
2024-02-28T06:13:42.613Z,54.96
2024-02-28T06:16:48.750Z,55.77
2024-02-28T06:19:51.039Z,55.34
2024-02-28T06:22:53.924Z,56.03
2024-02-28T06:25:56.697Z,56.86
2024-02-28T06:29:02.853Z,56.42
2024-02-28T06:32:05.760Z,54.61
2024-02-28T06:35:09.185Z,54.65
2024-02-28T06:38:11.605Z,54.66
2024-02-28T06:41:15.421Z,54.19
2024-02-28T06:44:17.883Z,54.88
2024-02-28T06:47:20.780Z,54.33
2024-02-28T06:50:23.039Z,55.56
2024-02-28T06:53:26.542Z,54.24
2024-02-28T06:56:28.846Z,53.44
2024-02-28T06:59:32.671Z,54.02
2024-02-28T07:02:36.200Z,53.49
2024-02-28T07:05:39.351Z,54.03
2024-02-28T07:08:41.708Z,53.70
2024-02-28T07:11:44.799Z,53.48
2024-02-28T07:14:49.912Z,53.56
2024-02-28T07:17:52.853Z,53.97
2024-02-28T07:20:55.817Z,52.80
2024-02-28T07:23:58.731Z,52.50
2024-02-28T07:27:01.191Z,53.01
2024-02-28T07:30:04.445Z,52.44
2024-02-28T07:33:07.527Z,52.31
2024-02-28T07:36:11.326Z,51.80
2024-02-28T07:39:13.887Z,52.11
2024-02-28T07:42:16.748Z,51.08
2024-02-28T07:45:19.898Z,49.00
2024-02-28T07:48:23.152Z,48.32
2024-02-28T07:51:25.596Z,47.48
2024-02-28T07:54:28.567Z,46.26
2024-02-28T07:57:32.223Z,45.82
2024-02-28T08:00:36.780Z,44.90
2024-02-28T08:03:39.794Z,44.57
2024-02-28T08:06:42.578Z,44.49
2024-02-28T08:09:45.343Z,44.88
2024-02-28T08:12:48.038Z,44.49
2024-02-28T08:15:50.639Z,44.04
2024-02-28T08:18:53.445Z,42.43
2024-02-28T08:21:56.192Z,40.56
2024-02-28T08:24:58.967Z,39.64
2024-02-28T08:28:01.890Z,40.31
2024-02-28T08:31:05.000Z,40.70
2024-02-28T08:34:07.743Z,40.71
2024-02-28T08:37:10.476Z,40.52
2024-02-28T08:40:13.701Z,37.78
2024-02-28T08:43:16.416Z,35.00
2024-02-28T08:46:19.165Z,31.50
2024-02-28T08:49:21.870Z,29.71
2024-02-28T08:52:24.682Z,27.64
2024-02-28T08:55:27.351Z,25.41
2024-02-28T08:58:30.217Z,23.44
2024-02-28T09:01:35.025Z,21.34
2024-02-28T09:04:37.731Z,19.87
2024-02-28T09:07:40.436Z,19.17
2024-02-28T09:10:43.077Z,17.89
2024-02-28T09:13:45.744Z,17.56
2024-02-28T09:16:48.980Z,16.89
2024-02-28T09:19:51.625Z,18.34
2024-02-28T09:22:54.349Z,18.73
2024-02-28T09:25:57.356Z,18.52
2024-02-28T09:29:00.054Z,19.00
2024-02-28T09:32:02.736Z,20.86
2024-02-28T09:35:06.009Z,22.08
2024-02-28T09:38:08.664Z,24.12
2024-02-28T09:41:16.350Z,24.48
2024-02-28T09:44:19.395Z,25.04
2024-02-28T09:47:22.180Z,26.24
2024-02-28T09:50:26.512Z,26.30
2024-02-28T09:53:29.230Z,26.90
2024-02-28T09:56:32.194Z,26.82
2024-02-28T09:59:43.115Z,26.31
2024-02-28T10:02:55.281Z,26.78
2024-02-28T10:05:57.976Z,26.97
2024-02-28T10:09:00.610Z,27.25
2024-02-28T10:12:03.991Z,27.08
2024-02-28T10:15:06.832Z,26.73
2024-02-28T10:18:09.492Z,27.05
2024-02-28T10:21:19.021Z,26.90
2024-02-28T10:24:24.936Z,26.14
2024-02-28T10:27:27.677Z,26.32
2024-02-28T10:30:30.483Z,26.42
2024-02-28T10:33:34.633Z,26.27
2024-02-28T10:36:37.533Z,26.49
2024-02-28T10:39:40.726Z,27.21
2024-02-28T10:42:43.750Z,26.91
2024-02-28T10:45:58.481Z,27.38
2024-02-28T10:49:10.451Z,27.72
2024-02-28T10:52:15.824Z,27.10
2024-02-28T10:55:21.970Z,26.78
2024-02-28T10:58:25.801Z,26.85
2024-02-28T11:01:31.456Z,26.53
2024-02-28T11:04:34.442Z,26.89
2024-02-28T11:07:37.088Z,27.05
2024-02-28T11:10:47.466Z,27.22
2024-02-28T11:13:54.192Z,27.58
2024-02-28T11:17:03.543Z,27.43
2024-02-28T11:20:12.488Z,27.30
2024-02-28T11:23:17.970Z,28.31
2024-02-28T11:26:21.820Z,28.13
2024-02-28T11:29:29.533Z,28.21
2024-02-28T11:32:33.730Z,28.02
2024-02-28T11:35:36.602Z,27.86
2024-02-28T11:38:39.653Z,27.38
2024-02-28T11:41:42.502Z,27.56
2024-02-28T11:44:55.584Z,27.90
2024-02-28T11:47:59.168Z,27.93
2024-02-28T11:51:01.860Z,28.00
2024-02-28T11:54:04.550Z,28.07
2024-02-28T11:57:08.920Z,28.17
2024-02-28T12:00:14.053Z,28.31
2024-02-28T12:03:24.062Z,28.50
2024-02-28T12:06:26.832Z,28.28
2024-02-28T12:09:38.249Z,28.82
2024-02-28T12:12:45.709Z,28.75
2024-02-28T12:15:49.700Z,28.59
2024-02-28T12:18:53.261Z,29.37
2024-02-28T12:21:56.280Z,29.00
2024-02-28T12:25:01.029Z,28.75
2024-02-28T12:28:04.059Z,29.62
2024-02-28T12:31:10.041Z,29.45
2024-02-28T12:34:12.903Z,30.32
2024-02-28T12:37:15.818Z,30.78
2024-02-28T12:40:18.515Z,31.13
2024-02-28T12:43:21.157Z,31.23
2024-02-28T12:46:23.863Z,32.04
2024-02-28T12:49:26.632Z,32.07
2024-02-28T12:52:29.475Z,32.21
2024-02-28T12:55:32.349Z,32.51
2024-02-28T12:58:34.995Z,32.79
2024-02-28T13:01:37.916Z,33.15
2024-02-28T13:04:40.881Z,33.53
2024-02-28T13:07:43.976Z,32.77
2024-02-28T13:10:46.616Z,32.63
2024-02-28T13:13:50.363Z,32.33
2024-02-28T13:16:55.003Z,32.39
2024-02-28T13:19:57.619Z,31.96
2024-02-28T13:23:01.336Z,31.76
2024-02-28T13:26:05.690Z,31.73
2024-02-28T13:29:08.451Z,31.79
2024-02-28T13:32:11.066Z,31.04
2024-02-28T13:35:13.712Z,31.65
2024-02-28T13:38:16.308Z,31.26
2024-02-28T13:41:18.915Z,31.65
2024-02-28T13:44:21.524Z,31.30
2024-02-28T13:47:24.829Z,30.85
2024-02-28T13:50:32.842Z,30.46
2024-02-28T13:53:36.048Z,31.25
2024-02-28T13:56:38.931Z,32.07
2024-02-28T13:59:41.597Z,32.11
2024-02-28T14:02:44.233Z,32.26
2024-02-28T14:05:46.885Z,32.50
2024-02-28T14:08:50.080Z,32.48
2024-02-28T14:11:52.883Z,32.88
2024-02-28T14:14:55.667Z,33.00
2024-02-28T14:17:58.356Z,33.45
2024-02-28T14:21:03.471Z,33.99
2024-02-28T14:24:08.396Z,34.32
2024-02-28T14:27:11.032Z,34.61
2024-02-28T14:30:14.196Z,34.62
2024-02-28T14:33:17.336Z,34.92
2024-02-28T14:36:21.783Z,35.15
2024-02-28T14:39:25.584Z,35.41
2024-02-28T14:42:28.410Z,35.39
2024-02-28T14:45:33.298Z,35.43
2024-02-28T14:48:36.272Z,35.67
2024-02-28T14:51:40.537Z,35.84
2024-02-28T14:54:45.462Z,36.02
2024-02-28T14:57:48.149Z,36.44
2024-02-28T15:00:50.889Z,36.61
2024-02-28T15:03:53.645Z,36.88
2024-02-28T15:06:56.498Z,37.24
2024-02-28T15:10:01.488Z,37.44
2024-02-28T15:13:05.315Z,37.50
2024-02-28T15:16:08.234Z,37.87
2024-02-28T15:19:11.016Z,38.40
2024-02-28T15:22:13.676Z,39.02
2024-02-28T15:25:16.462Z,39.68
2024-02-28T15:28:19.083Z,40.06
2024-02-28T15:31:22.449Z,40.42
2024-02-28T15:34:25.101Z,40.76
2024-02-28T15:37:28.175Z,41.01
2024-02-28T15:40:30.980Z,40.67
2024-02-28T15:43:34.632Z,41.11
2024-02-28T15:46:38.732Z,41.41
2024-02-28T15:49:41.918Z,41.83
2024-02-28T15:52:45.151Z,42.30
2024-02-28T15:55:47.883Z,42.58
2024-02-28T15:58:50.589Z,43.11
2024-02-28T16:01:53.192Z,43.69
2024-02-28T16:04:56.089Z,43.95
2024-02-28T16:07:58.550Z,44.02
2024-02-28T16:11:01.654Z,44.47
2024-02-28T16:14:04.187Z,44.76
2024-02-28T16:17:07.159Z,45.25
2024-02-28T16:20:10.026Z,45.55
2024-02-28T16:23:13.256Z,45.88
2024-02-28T16:26:16.274Z,46.14
2024-02-28T16:29:19.208Z,46.39
2024-02-28T16:32:21.535Z,46.73
2024-02-28T16:35:24.444Z,47.02
2024-02-28T16:38:26.819Z,47.48
2024-02-28T16:41:29.725Z,47.55
2024-02-28T16:44:32.614Z,47.50
2024-02-28T16:47:35.760Z,47.40
2024-02-28T16:50:38.194Z,47.63
2024-02-28T16:53:41.486Z,47.68
2024-02-28T16:56:43.892Z,47.84
2024-02-28T16:59:47.439Z,47.99
2024-02-28T17:02:49.903Z,48.17
2024-02-28T17:05:52.766Z,48.39
2024-02-28T17:08:55.095Z,48.59
2024-02-28T17:11:58.056Z,48.44
2024-02-28T17:15:00.684Z,48.84
2024-02-28T17:18:04.374Z,48.80
2024-02-28T17:21:07.376Z,49.26
2024-02-28T17:24:10.448Z,49.49
2024-02-28T17:27:13.038Z,49.66
2024-02-28T17:30:16.920Z,49.65
2024-02-28T17:33:19.349Z,49.38
2024-02-28T17:36:22.397Z,49.26
2024-02-28T17:39:25.659Z,49.55
2024-02-28T17:42:31.503Z,49.70
2024-02-28T17:45:33.988Z,49.85
2024-02-28T17:48:39.184Z,49.91
2024-02-28T17:51:43.727Z,50.17
2024-02-28T17:54:47.545Z,50.16
2024-02-28T17:57:51.869Z,49.98
2024-02-28T18:00:59.040Z,50.30
2024-02-28T18:04:02.884Z,50.42
2024-02-28T18:07:05.636Z,50.95
2024-02-28T18:10:08.628Z,51.10
2024-02-28T18:13:16.181Z,50.96
2024-02-28T18:16:20.431Z,51.32
2024-02-28T18:19:23.492Z,51.53
2024-02-28T18:22:26.150Z,51.60
2024-02-28T18:25:28.738Z,51.46
2024-02-28T18:28:31.456Z,51.83
2024-02-28T18:31:34.283Z,52.25
2024-02-28T18:34:36.962Z,52.57
2024-02-28T18:37:41.330Z,52.50
2024-02-28T18:40:44.592Z,52.79
2024-02-28T18:43:48.136Z,52.76
2024-02-28T18:46:51.119Z,52.79
2024-02-28T18:49:53.780Z,52.84
2024-02-28T18:52:56.429Z,52.97
2024-02-28T18:55:59.097Z,53.11
2024-02-28T18:59:01.804Z,53.22
2024-02-28T19:02:06.148Z,53.40
2024-02-28T19:05:09.016Z,53.60
2024-02-28T19:08:11.909Z,53.75
2024-02-28T19:11:14.577Z,53.90
2024-02-28T19:14:17.200Z,54.10
2024-02-28T19:17:20.787Z,54.17
2024-02-28T19:20:24.277Z,54.00
2024-02-28T19:23:26.841Z,54.51
2024-02-28T19:26:31.411Z,54.70
2024-02-28T19:29:34.105Z,54.64
2024-02-28T19:32:39.024Z,54.72
2024-02-28T19:35:42.164Z,54.57
2024-02-28T19:38:44.781Z,54.85
2024-02-28T19:41:47.490Z,54.99
2024-02-28T19:44:50.171Z,54.93
2024-02-28T19:47:53.191Z,54.71
2024-02-28T19:50:55.900Z,54.53
2024-02-28T19:53:59.279Z,54.81
2024-02-28T19:57:01.876Z,55.05
2024-02-28T20:00:10.362Z,55.20
2024-02-28T20:03:14.363Z,55.26
2024-02-28T20:06:17.084Z,55.18
2024-02-28T20:09:20.043Z,55.56
2024-02-28T20:12:22.496Z,55.44
2024-02-28T20:15:26.375Z,55.57
2024-02-28T20:18:28.910Z,55.39
2024-02-28T20:21:31.945Z,55.56
2024-02-28T20:24:35.138Z,55.77
2024-02-28T20:27:38.102Z,55.62
2024-02-28T20:30:40.667Z,55.71
2024-02-28T20:33:45.470Z,54.85
2024-02-28T20:36:48.148Z,55.00
2024-02-28T20:39:51.216Z,54.47
2024-02-28T20:42:53.687Z,54.84
2024-02-28T20:45:56.959Z,55.54
2024-02-28T20:48:59.327Z,56.21
2024-02-28T20:52:02.458Z,56.82
2024-02-28T20:55:05.446Z,57.44
2024-02-28T20:58:08.660Z,56.33
2024-02-28T21:01:11.110Z,56.72
2024-02-28T21:04:17.285Z,57.01
2024-02-28T21:07:23.038Z,57.38
2024-02-28T21:10:30.337Z,57.64
2024-02-28T21:13:32.744Z,57.76
2024-02-28T21:16:37.793Z,56.73
2024-02-28T21:19:40.168Z,56.20
2024-02-28T21:22:43.107Z,55.86
2024-02-28T21:25:45.538Z,56.33
2024-02-28T21:28:48.448Z,56.67
2024-02-28T21:31:50.856Z,56.42
2024-02-28T21:34:53.674Z,57.67
2024-02-28T21:37:55.977Z,57.98
2024-02-28T21:40:58.941Z,57.74
2024-02-28T21:44:01.654Z,58.12
2024-02-28T21:47:04.505Z,58.14
2024-02-28T21:50:07.330Z,58.09
2024-02-28T21:53:10.411Z,57.82
2024-02-28T21:56:12.797Z,58.13
2024-02-28T21:59:15.727Z,58.16
2024-02-28T22:02:19.689Z,58.14
2024-02-28T22:05:23.458Z,58.08
2024-02-28T22:08:25.792Z,58.33
2024-02-28T22:11:29.676Z,58.51
2024-02-28T22:14:32.070Z,58.24
2024-02-28T22:17:35.034Z,58.43
2024-02-28T22:20:37.487Z,58.38
2024-02-28T22:23:40.426Z,58.33
2024-02-28T22:26:42.775Z,58.30
2024-02-28T22:29:45.644Z,58.36
2024-02-28T22:32:47.990Z,58.45
2024-02-28T22:35:51.706Z,58.10
2024-02-28T22:38:54.201Z,58.34
2024-02-28T22:42:00.128Z,58.68
2024-02-28T22:45:02.875Z,58.26
2024-02-28T22:48:05.964Z,58.66
2024-02-28T22:51:08.406Z,58.81
2024-02-28T22:54:15.920Z,58.87
2024-02-28T22:57:18.683Z,58.75
2024-02-28T23:00:31.189Z,58.72
2024-02-28T23:03:33.979Z,58.73
2024-02-28T23:06:36.995Z,58.72
2024-02-28T23:09:39.408Z,59.09
2024-02-28T23:12:42.362Z,58.94
2024-02-28T23:15:44.827Z,58.93
2024-02-28T23:18:47.815Z,59.23
2024-02-28T23:21:50.222Z,59.42
2024-02-28T23:24:53.187Z,59.44
2024-02-28T23:27:55.842Z,59.21
2024-02-28T23:30:58.975Z,59.98
2024-02-28T23:34:01.480Z,59.29
2024-02-28T23:37:04.660Z,58.66
2024-02-28T23:40:10.183Z,58.30
2024-02-28T23:43:13.221Z,57.64
2024-02-28T23:46:15.676Z,58.03
2024-02-28T23:49:18.752Z,58.00
2024-02-28T23:52:21.100Z,58.50
2024-02-28T23:55:46.210Z,58.72
2024-02-28T23:58:48.889Z,58.79
